createdAt,value
2018-05-10T00:00:38.401Z,19.47
2018-05-10T00:03:06.060Z,19.44
2018-05-10T00:05:33.726Z,19.38
2018-05-10T00:08:01.489Z,19.40
2018-05-10T00:10:29.253Z,19.39
2018-05-10T00:12:56.907Z,19.37
2018-05-10T00:15:24.572Z,19.40
2018-05-10T00:17:52.342Z,19.38
2018-05-10T00:20:20.004Z,19.43
2018-05-10T00:22:47.760Z,19.34
2018-05-10T00:25:15.533Z,19.33
2018-05-10T00:27:43.400Z,19.34
2018-05-10T00:30:11.051Z,19.32
2018-05-10T00:32:38.826Z,19.15
2018-05-10T00:35:06.591Z,19.11
2018-05-10T00:37:34.254Z,19.15
2018-05-10T00:40:02.017Z,19.16
2018-05-10T00:42:29.782Z,19.11
2018-05-10T00:44:57.548Z,19.01
2018-05-10T00:47:25.311Z,19.05
2018-05-10T00:49:53.015Z,19.02
2018-05-10T00:52:20.738Z,19.01
2018-05-10T00:54:58.127Z,18.93
2018-05-10T00:57:25.795Z,18.90
2018-05-10T00:59:53.560Z,18.81
2018-05-10T01:02:21.525Z,18.66
2018-05-10T01:04:49.350Z,18.66
2018-05-10T01:07:17.055Z,18.66
2018-05-10T01:09:44.822Z,18.54
2018-05-10T01:12:12.686Z,18.48
2018-05-10T01:14:40.349Z,18.38
2018-05-10T01:17:08.113Z,18.41
2018-05-10T01:19:35.882Z,18.38
2018-05-10T01:22:04.659Z,18.25
2018-05-10T01:24:32.429Z,18.33
2018-05-10T01:27:00.092Z,18.33
2018-05-10T01:29:27.748Z,18.31
2018-05-10T01:31:55.416Z,18.29
2018-05-10T01:34:23.083Z,18.20
2018-05-10T01:36:50.944Z,18.14
2018-05-10T01:39:18.605Z,18.14
2018-05-10T01:41:46.267Z,18.10
2018-05-10T01:44:13.931Z,18.07
2018-05-10T01:46:41.695Z,18.00
2018-05-10T01:49:09.465Z,17.92
2018-05-10T01:51:37.226Z,17.85
2018-05-10T01:54:04.886Z,17.84
2018-05-10T01:56:32.547Z,17.56
2018-05-10T01:59:00.312Z,17.59
2018-05-10T02:01:28.180Z,17.60
2018-05-10T02:03:55.841Z,17.67
2018-05-10T02:06:23.503Z,17.65
2018-05-10T02:08:51.225Z,17.69
2018-05-10T02:11:19.033Z,17.55
2018-05-10T02:13:46.698Z,17.31
2018-05-10T02:16:14.460Z,17.26
2018-05-10T02:18:42.226Z,17.13
2018-05-10T02:21:09.989Z,17.10
2018-05-10T02:23:37.753Z,16.97
2018-05-10T02:26:05.517Z,16.98
2018-05-10T02:28:33.275Z,17.16
2018-05-10T02:31:00.944Z,17.24
2018-05-10T02:33:28.811Z,17.30
2018-05-10T02:35:56.540Z,17.32
2018-05-10T02:38:24.236Z,17.30
2018-05-10T02:40:52.004Z,17.34
2018-05-10T02:43:19.766Z,17.40
2018-05-10T02:45:47.531Z,17.42
2018-05-10T02:48:15.401Z,17.32
2018-05-10T02:50:43.162Z,17.38
2018-05-10T02:53:10.909Z,17.41
2018-05-10T02:55:38.645Z,17.36
2018-05-10T02:58:06.354Z,17.48
2018-05-10T03:00:34.017Z,17.42
2018-05-10T03:03:01.679Z,17.43
2018-05-10T03:05:29.388Z,17.47
2018-05-10T03:07:57.105Z,17.52
2018-05-10T03:10:24.767Z,17.53
2018-05-10T03:12:52.532Z,17.57
2018-05-10T03:15:20.254Z,17.66
2018-05-10T03:17:48.060Z,17.71
2018-05-10T03:20:15.824Z,17.75
2018-05-10T03:22:43.589Z,17.83
2018-05-10T03:25:11.253Z,17.88
2018-05-10T03:27:39.016Z,17.80
2018-05-10T03:30:06.730Z,17.90
2018-05-10T03:32:34.546Z,17.87
2018-05-10T03:35:02.315Z,17.86
2018-05-10T03:37:30.182Z,17.83
2018-05-10T03:39:57.838Z,17.82
2018-05-10T03:42:25.605Z,17.88
2018-05-10T03:44:53.305Z,17.87
2018-05-10T03:47:21.132Z,17.96
2018-05-10T03:49:48.989Z,17.92
2018-05-10T03:52:16.763Z,17.86
2018-05-10T03:54:44.528Z,17.85
2018-05-10T03:57:12.391Z,17.86
2018-05-10T03:59:40.157Z,17.82
2018-05-10T04:02:07.872Z,17.96
2018-05-10T04:04:47.362Z,17.98
2018-05-10T04:07:27.108Z,17.98
2018-05-10T04:10:06.855Z,17.92
2018-05-10T04:12:35.539Z,17.96
2018-05-10T04:15:03.254Z,18.05
2018-05-10T04:17:31.073Z,18.00
2018-05-10T04:19:58.834Z,17.91
2018-05-10T04:22:26.598Z,17.95
2018-05-10T04:24:54.464Z,17.97
2018-05-10T04:27:22.117Z,17.91
2018-05-10T04:29:49.893Z,17.97
2018-05-10T04:32:17.655Z,17.86
2018-05-10T04:34:45.522Z,17.94
2018-05-10T04:37:13.287Z,17.91
2018-05-10T04:39:41.154Z,17.86
2018-05-10T04:42:08.914Z,17.86
2018-05-10T04:44:36.580Z,17.89
2018-05-10T04:47:04.349Z,17.79
2018-05-10T04:49:32.167Z,17.86
2018-05-10T04:51:59.978Z,17.70
2018-05-10T04:54:27.849Z,17.73
2018-05-10T04:56:55.610Z,17.64
2018-05-10T04:59:23.474Z,17.67
2018-05-10T05:01:51.200Z,17.64
2018-05-10T05:04:18.901Z,17.68
2018-05-10T05:06:46.665Z,17.58
2018-05-10T05:09:14.474Z,17.55
2018-05-10T05:11:42.089Z,17.48
2018-05-10T05:14:09.908Z,17.50
2018-05-10T05:16:37.724Z,17.38
2018-05-10T05:19:05.540Z,17.40
2018-05-10T05:21:33.332Z,17.36
2018-05-10T05:24:01.119Z,17.37
2018-05-10T05:26:29.702Z,17.38
2018-05-10T05:28:57.411Z,17.34
2018-05-10T05:31:25.149Z,17.27
2018-05-10T05:33:52.793Z,17.32
2018-05-10T05:36:20.556Z,17.24
2018-05-10T05:38:48.274Z,17.27
2018-05-10T05:41:16.196Z,17.27
2018-05-10T05:43:43.739Z,17.13
2018-05-10T05:46:11.511Z,17.00
2018-05-10T05:48:39.277Z,16.90
2018-05-10T05:51:07.166Z,16.71
2018-05-10T05:53:34.898Z,16.66
2018-05-10T05:56:02.774Z,16.46
2018-05-10T05:58:30.529Z,16.33
2018-05-10T06:00:58.317Z,16.19
2018-05-10T06:03:26.274Z,16.08
2018-05-10T06:05:54.140Z,16.20
2018-05-10T06:08:21.904Z,16.19
2018-05-10T06:10:49.616Z,15.82
2018-05-10T06:13:17.381Z,15.91
2018-05-10T06:15:45.243Z,15.91
2018-05-10T06:18:12.914Z,15.74
2018-05-10T06:20:40.730Z,15.88
2018-05-10T06:23:08.592Z,15.91
2018-05-10T06:25:36.358Z,15.97
2018-05-10T06:28:04.282Z,15.98
2018-05-10T06:30:31.989Z,16.09
2018-05-10T06:32:59.815Z,15.99
2018-05-10T06:35:27.620Z,15.87
2018-05-10T06:37:55.286Z,15.93
2018-05-10T06:40:22.989Z,15.92
2018-05-10T06:42:50.709Z,15.94
2018-05-10T06:45:18.430Z,15.85
2018-05-10T06:47:46.190Z,15.90
2018-05-10T06:50:14.005Z,15.87
2018-05-10T06:52:41.767Z,15.92
2018-05-10T06:55:09.776Z,15.86
2018-05-10T06:57:37.603Z,15.80
2018-05-10T07:00:05.369Z,15.86
2018-05-10T07:02:33.030Z,15.93
2018-05-10T07:05:00.756Z,15.88
2018-05-10T07:07:28.567Z,15.80
2018-05-10T07:09:56.418Z,15.87
2018-05-10T07:12:23.891Z,16.01
2018-05-10T07:14:51.651Z,16.03
2018-05-10T07:17:19.418Z,16.12
2018-05-10T07:19:47.280Z,16.19
2018-05-10T07:22:15.148Z,16.15
2018-05-10T07:24:43.018Z,16.26
2018-05-10T07:27:10.731Z,16.21
2018-05-10T07:29:38.543Z,16.32
2018-05-10T07:32:06.308Z,16.32
2018-05-10T07:34:34.031Z,16.35
2018-05-10T07:37:01.797Z,16.43
2018-05-10T07:39:29.601Z,16.41
2018-05-10T07:41:57.281Z,16.32
2018-05-10T07:44:25.988Z,16.30
2018-05-10T07:46:53.819Z,16.32
2018-05-10T07:49:21.686Z,16.30
2018-05-10T07:51:49.449Z,16.15
2018-05-10T07:54:17.417Z,16.14
2018-05-10T07:56:45.079Z,16.12
2018-05-10T07:59:12.945Z,16.06
2018-05-10T08:01:40.663Z,16.04
2018-05-10T08:04:08.373Z,15.95
2018-05-10T08:06:36.098Z,16.06
2018-05-10T08:09:04.005Z,16.00
2018-05-10T08:11:32.279Z,16.11
2018-05-10T08:14:00.149Z,16.02
2018-05-10T08:16:28.006Z,16.10
2018-05-10T08:18:55.831Z,16.22
2018-05-10T08:21:38.447Z,16.12
2018-05-10T08:24:06.259Z,16.11
2018-05-10T08:26:33.865Z,16.09
2018-05-10T08:29:01.585Z,16.17
2018-05-10T08:31:29.266Z,16.19
2018-05-10T08:33:56.911Z,16.22
2018-05-10T08:36:24.877Z,16.33
2018-05-10T08:38:52.638Z,16.55
2018-05-10T08:41:20.353Z,16.61
2018-05-10T08:43:48.375Z,16.58
2018-05-10T08:46:16.138Z,16.58
2018-05-10T08:48:43.802Z,16.68
2018-05-10T08:51:11.411Z,16.71
2018-05-10T08:53:39.091Z,16.68
2018-05-10T08:56:06.701Z,16.76
2018-05-10T08:58:34.350Z,16.84
2018-05-10T09:01:01.990Z,16.82
2018-05-10T09:03:29.634Z,16.92
2018-05-10T09:05:57.256Z,16.98
2018-05-10T09:08:24.991Z,17.22
2018-05-10T09:10:52.659Z,17.19
2018-05-10T09:13:20.420Z,17.15
2018-05-10T09:15:48.137Z,17.23
2018-05-10T09:18:15.905Z,17.19
2018-05-10T09:20:43.714Z,17.21
2018-05-10T09:23:11.377Z,17.33
2018-05-10T09:25:39.142Z,17.11
2018-05-10T09:28:06.803Z,17.26
2018-05-10T09:30:34.570Z,17.41
2018-05-10T09:33:02.436Z,17.26
2018-05-10T09:35:30.148Z,17.11
2018-05-10T09:37:57.964Z,17.10
2018-05-10T09:40:25.616Z,17.03
2018-05-10T09:42:53.397Z,16.85
2018-05-10T09:45:21.117Z,16.80
2018-05-10T09:47:48.924Z,16.71
2018-05-10T09:50:16.570Z,16.50
2018-05-10T09:52:44.302Z,16.55
2018-05-10T09:55:12.055Z,16.59
2018-05-10T09:57:39.876Z,16.53
2018-05-10T10:00:07.640Z,16.49
2018-05-10T10:02:35.381Z,16.46
2018-05-10T10:05:03.058Z,16.53
2018-05-10T10:07:30.913Z,16.48
2018-05-10T10:09:58.700Z,16.30
2018-05-10T10:12:26.361Z,16.53
2018-05-10T10:14:54.227Z,16.44
2018-05-10T10:17:22.595Z,16.46
2018-05-10T10:19:50.247Z,16.55
2018-05-10T10:22:17.852Z,16.49
2018-05-10T10:24:45.583Z,16.55
2018-05-10T10:27:13.183Z,16.58
2018-05-10T10:29:41.019Z,16.59
2018-05-10T10:32:08.732Z,16.45
2018-05-10T10:34:36.445Z,16.23
2018-05-10T10:37:04.112Z,16.30
2018-05-10T10:39:31.931Z,16.02
2018-05-10T10:41:59.740Z,16.02
2018-05-10T10:44:27.463Z,16.30
2018-05-10T10:46:55.160Z,16.56
2018-05-10T10:49:22.930Z,16.35
2018-05-10T10:51:50.544Z,16.46
2018-05-10T10:54:18.409Z,16.65
2018-05-10T10:56:46.227Z,16.59
2018-05-10T10:59:13.992Z,16.44
2018-05-10T11:01:41.782Z,16.49
2018-05-10T11:04:09.621Z,16.55
2018-05-10T11:06:37.342Z,16.36
2018-05-10T11:09:05.213Z,16.21
2018-05-10T11:11:33.015Z,16.15
2018-05-10T11:14:00.886Z,16.30
2018-05-10T11:16:28.648Z,16.23
2018-05-10T11:18:56.295Z,16.11
2018-05-10T11:21:23.903Z,16.27
2018-05-10T11:23:51.549Z,16.38
2018-05-10T11:26:19.158Z,16.06
2018-05-10T11:28:46.802Z,16.22
2018-05-10T11:31:14.415Z,16.16
2018-05-10T11:33:42.172Z,16.16
2018-05-10T11:36:09.811Z,16.51
2018-05-10T11:38:37.607Z,16.68
2018-05-10T11:41:05.373Z,16.70
2018-05-10T11:43:33.241Z,16.89
2018-05-10T11:46:01.003Z,16.83
2018-05-10T11:48:28.665Z,16.86
2018-05-10T11:50:56.315Z,16.90
2018-05-10T11:53:24.031Z,16.64
2018-05-10T11:55:51.749Z,16.72
2018-05-10T11:58:19.347Z,16.83
2018-05-10T12:00:46.994Z,16.94
2018-05-10T12:03:14.596Z,16.75
2018-05-10T12:05:42.250Z,16.75
2018-05-10T12:08:09.861Z,16.66
2018-05-10T12:10:37.511Z,16.78
2018-05-10T12:13:05.297Z,16.84
2018-05-10T12:15:33.151Z,16.80
2018-05-10T12:18:00.754Z,16.92
2018-05-10T12:20:28.433Z,17.04
2018-05-10T12:22:56.037Z,17.09
2018-05-10T12:25:23.685Z,17.09
2018-05-10T12:27:51.295Z,17.10
2018-05-10T12:30:18.942Z,17.04
2018-05-10T12:32:46.556Z,17.02
2018-05-10T12:35:14.202Z,16.90
2018-05-10T12:37:41.812Z,16.77
2018-05-10T12:40:09.465Z,16.75
2018-05-10T12:42:37.074Z,16.60
2018-05-10T12:45:04.790Z,16.54
2018-05-10T12:47:32.391Z,16.60
2018-05-10T12:50:00.032Z,16.64
2018-05-10T12:52:27.675Z,16.55
2018-05-10T12:54:55.326Z,16.48
2018-05-10T12:57:22.950Z,16.58
2018-05-10T12:59:50.603Z,16.84
2018-05-10T13:02:18.224Z,16.95
2018-05-10T13:04:45.881Z,17.00
2018-05-10T13:07:13.511Z,16.90
2018-05-10T13:09:41.158Z,16.80
2018-05-10T13:12:08.970Z,16.57
2018-05-10T13:14:36.783Z,16.65
2018-05-10T13:17:04.602Z,16.73
2018-05-10T13:19:32.355Z,16.56
2018-05-10T13:21:59.920Z,16.32
2018-05-10T13:24:27.575Z,16.07
2018-05-10T13:26:55.188Z,15.70
2018-05-10T13:29:22.861Z,15.30
2018-05-10T13:31:50.553Z,15.21
2018-05-10T13:34:18.207Z,15.19
2018-05-10T13:36:45.814Z,15.02
2018-05-10T13:39:13.475Z,14.87
2018-05-10T13:41:41.077Z,14.90
2018-05-10T13:44:08.731Z,14.97
2018-05-10T13:46:36.344Z,14.88
2018-05-10T13:49:04.008Z,15.14
2018-05-10T13:51:31.623Z,15.25
2018-05-10T13:53:59.235Z,15.35
2018-05-10T13:56:26.895Z,15.55
2018-05-10T13:58:54.543Z,15.65
2018-05-10T14:01:22.182Z,15.69
2018-05-10T14:03:49.796Z,15.70
2018-05-10T14:06:18.263Z,15.72
2018-05-10T14:08:45.871Z,15.74
2018-05-10T14:11:13.597Z,15.81
2018-05-10T14:13:41.202Z,15.96
2018-05-10T14:16:08.855Z,16.07
2018-05-10T14:18:36.467Z,15.95
2018-05-10T14:21:04.114Z,16.18
2018-05-10T14:23:31.994Z,16.10
2018-05-10T14:25:59.645Z,15.99
2018-05-10T14:28:27.261Z,16.12
2018-05-10T14:30:54.924Z,16.07
2018-05-10T14:33:22.532Z,16.04
2018-05-10T14:35:50.183Z,16.13
2018-05-10T14:38:17.791Z,16.02
2018-05-10T14:40:45.439Z,16.07
2018-05-10T14:43:13.044Z,16.17
2018-05-10T14:45:40.744Z,16.35
2018-05-10T14:48:08.375Z,16.31
2018-05-10T14:50:36.027Z,16.45
2018-05-10T14:53:03.636Z,15.99
2018-05-10T14:55:31.284Z,16.03
2018-05-10T14:57:58.902Z,16.23
2018-05-10T15:00:26.631Z,16.40
2018-05-10T15:02:54.266Z,16.45
2018-05-10T15:05:21.941Z,16.31
2018-05-10T15:07:49.693Z,16.41
2018-05-10T15:10:17.339Z,16.52
2018-05-10T15:12:44.945Z,16.61
2018-05-10T15:15:12.595Z,16.56
2018-05-10T15:17:40.250Z,16.54
2018-05-10T15:20:08.117Z,16.57
2018-05-10T15:22:35.727Z,16.55
2018-05-10T15:25:03.427Z,16.55
2018-05-10T15:27:31.071Z,16.49
2018-05-10T15:29:58.724Z,16.55
2018-05-10T15:32:26.398Z,16.71
2018-05-10T15:34:54.043Z,16.73
2018-05-10T15:37:21.696Z,16.72
2018-05-10T15:39:49.349Z,16.77
2018-05-10T15:42:16.957Z,16.57
2018-05-10T15:44:44.610Z,16.51
2018-05-10T15:47:12.251Z,16.68
2018-05-10T15:49:40.007Z,16.69
2018-05-10T15:52:07.614Z,16.70
2018-05-10T15:54:35.268Z,16.54
2018-05-10T15:57:02.884Z,16.71
2018-05-10T15:59:30.567Z,16.64
2018-05-10T16:01:58.190Z,16.72
2018-05-10T16:04:25.796Z,16.80
2018-05-10T16:06:53.449Z,16.86
2018-05-10T16:09:21.155Z,16.75
2018-05-10T16:11:48.800Z,16.82
2018-05-10T16:14:16.419Z,16.83
2018-05-10T16:16:44.066Z,16.83
2018-05-10T16:19:11.673Z,16.84
2018-05-10T16:21:39.313Z,16.70
2018-05-10T16:24:06.926Z,16.66
2018-05-10T16:26:34.566Z,16.88
2018-05-10T16:29:02.183Z,16.82
2018-05-10T16:31:29.829Z,16.67
2018-05-10T16:33:57.430Z,16.57
2018-05-10T16:36:25.130Z,16.59
2018-05-10T16:38:52.894Z,16.53
2018-05-10T16:41:20.550Z,16.63
2018-05-10T16:43:48.180Z,16.65
2018-05-10T16:46:15.870Z,16.66
2018-05-10T16:48:43.480Z,16.72
2018-05-10T16:51:11.128Z,16.76
2018-05-10T16:53:38.735Z,16.68
2018-05-10T16:56:06.374Z,16.68
2018-05-10T16:58:33.984Z,16.80
2018-05-10T17:01:01.647Z,16.91
2018-05-10T17:03:29.311Z,16.87
2018-05-10T17:05:56.959Z,16.87
2018-05-10T17:08:24.581Z,16.96
2018-05-10T17:10:52.239Z,16.90
2018-05-10T17:13:19.862Z,16.91
2018-05-10T17:15:47.507Z,16.86
2018-05-10T17:18:15.133Z,16.97
2018-05-10T17:20:42.814Z,16.98
2018-05-10T17:23:10.425Z,16.98
2018-05-10T17:25:38.079Z,17.03
2018-05-10T17:28:05.727Z,17.05
2018-05-10T17:30:33.378Z,17.09
2018-05-10T17:33:00.987Z,17.09
2018-05-10T17:35:28.687Z,17.17
2018-05-10T17:37:56.303Z,17.14
2018-05-10T17:40:23.954Z,16.94
2018-05-10T17:42:51.711Z,16.77
2018-05-10T17:45:19.364Z,16.75
2018-05-10T17:47:47.162Z,16.71
2018-05-10T17:50:14.865Z,16.68
2018-05-10T17:52:42.472Z,16.64
2018-05-10T17:55:10.178Z,16.74
2018-05-10T17:57:37.760Z,16.79
2018-05-10T18:00:05.411Z,16.74
2018-05-10T18:02:33.022Z,16.73
2018-05-10T18:05:00.630Z,16.77
2018-05-10T18:07:28.371Z,16.79
2018-05-10T18:09:56.095Z,16.77
2018-05-10T18:12:23.895Z,16.72
2018-05-10T18:14:51.602Z,16.78
2018-05-10T18:17:19.661Z,16.85
2018-05-10T18:19:47.393Z,16.90
2018-05-10T18:22:15.043Z,16.93
2018-05-10T18:24:42.681Z,16.94
2018-05-10T18:27:10.394Z,16.95
2018-05-10T18:29:38.120Z,16.98
2018-05-10T18:32:06.071Z,17.02
2018-05-10T18:34:33.675Z,17.02
2018-05-10T18:37:01.355Z,17.00
2018-05-10T18:39:29.116Z,16.96
2018-05-10T18:41:56.763Z,16.94
2018-05-10T18:44:24.475Z,16.90
2018-05-10T18:46:52.124Z,16.93
2018-05-10T18:49:19.747Z,16.92
2018-05-10T18:51:47.391Z,16.88
2018-05-10T18:54:15.393Z,16.88
2018-05-10T18:56:43.304Z,16.77
2018-05-10T18:59:10.907Z,16.76
2018-05-10T19:01:38.557Z,16.79
2018-05-10T19:04:06.161Z,16.79
2018-05-10T19:06:34.039Z,16.75
2018-05-10T19:09:02.211Z,16.76
2018-05-10T19:11:30.194Z,16.64
2018-05-10T19:13:57.962Z,16.62
2018-05-10T19:16:25.614Z,16.62
2018-05-10T19:18:53.269Z,16.59
2018-05-10T19:27:19.626Z,16.56
2018-05-10T19:29:47.292Z,16.47
2018-05-10T19:32:15.054Z,16.44
2018-05-10T19:34:42.822Z,16.39
2018-05-10T19:37:10.726Z,16.37
2018-05-10T19:39:38.343Z,16.33
2018-05-10T19:42:06.222Z,16.29
2018-05-10T19:44:33.981Z,16.25
2018-05-10T19:47:01.758Z,16.16
2018-05-10T19:49:29.613Z,16.10
2018-05-10T19:51:57.477Z,16.08
2018-05-10T19:54:25.427Z,16.06
2018-05-10T19:56:53.452Z,16.01
2018-05-10T19:59:21.080Z,16.00
2018-05-10T20:01:48.845Z,15.99
2018-05-10T20:04:16.555Z,15.97
2018-05-10T20:06:44.274Z,15.95
2018-05-10T20:09:11.934Z,15.97
2018-05-10T20:11:39.800Z,15.96
2018-05-10T20:14:07.471Z,15.91
2018-05-10T20:16:35.385Z,15.93
2018-05-10T20:19:03.099Z,15.94
2018-05-10T20:21:30.970Z,15.95
2018-05-10T20:23:58.731Z,15.94
2018-05-10T20:26:26.512Z,15.89
2018-05-10T20:28:54.153Z,15.87
2018-05-10T20:31:21.871Z,15.89
2018-05-10T20:33:49.591Z,15.90
2018-05-10T20:36:17.452Z,15.75
2018-05-10T20:38:45.110Z,15.41
2018-05-10T20:41:12.787Z,15.31
2018-05-10T20:43:40.435Z,15.28
2018-05-10T20:46:08.238Z,15.12
2018-05-10T20:48:35.961Z,15.16
2018-05-10T20:51:03.725Z,15.00
2018-05-10T20:53:31.388Z,15.08
2018-05-10T20:55:59.155Z,15.17
2018-05-10T20:58:26.815Z,15.26
2018-05-10T21:00:54.583Z,15.31
2018-05-10T21:03:22.553Z,15.35
2018-05-10T21:05:50.418Z,15.32
2018-05-10T21:08:18.284Z,15.36
2018-05-10T21:10:47.185Z,15.40
2018-05-10T21:13:15.081Z,15.44
2018-05-10T21:15:42.690Z,15.49
2018-05-10T21:18:10.467Z,15.48
2018-05-10T21:20:38.071Z,15.48
2018-05-10T21:23:05.929Z,15.45
2018-05-10T21:25:33.555Z,15.40
2018-05-10T21:28:01.320Z,15.42
2018-05-10T21:30:28.974Z,15.47
2018-05-10T21:32:56.746Z,15.44
2018-05-10T21:35:24.512Z,15.50
2018-05-10T21:37:52.222Z,15.48
2018-05-10T21:40:20.038Z,15.49
2018-05-10T21:42:47.927Z,15.29
2018-05-10T21:45:15.674Z,15.14
2018-05-10T21:47:43.433Z,15.24
2018-05-10T21:50:11.200Z,15.29
2018-05-10T21:52:39.067Z,15.32
2018-05-10T21:55:06.741Z,15.32
2018-05-10T21:57:34.494Z,15.21
2018-05-10T22:00:02.257Z,15.27
2018-05-10T22:02:30.023Z,15.25
2018-05-10T22:04:57.791Z,15.28
2018-05-10T22:07:25.551Z,15.24
2018-05-10T22:09:53.316Z,15.22
2018-05-10T22:12:20.977Z,15.25
2018-05-10T22:14:48.743Z,15.24
2018-05-10T22:17:16.515Z,15.19
2018-05-10T22:19:44.374Z,15.15
2018-05-10T22:22:12.138Z,14.98
2018-05-10T22:24:39.858Z,14.91
2018-05-10T22:27:07.558Z,14.89
2018-05-10T22:29:35.273Z,14.86
2018-05-10T22:32:03.087Z,14.60
2018-05-10T22:34:30.752Z,14.46
2018-05-10T22:36:58.421Z,14.52
2018-05-10T22:39:26.078Z,14.56
2018-05-10T22:41:54.561Z,14.45
2018-05-10T22:44:22.334Z,14.33
2018-05-10T22:46:50.138Z,14.48
2018-05-10T22:49:17.876Z,14.56
2018-05-10T22:51:45.725Z,14.61
2018-05-10T22:54:13.494Z,14.61
2018-05-10T22:56:41.246Z,14.58
2018-05-10T22:59:09.018Z,14.58
2018-05-10T23:01:36.881Z,14.53
2018-05-10T23:04:05.261Z,14.54
2018-05-10T23:06:33.128Z,14.57
2018-05-10T23:09:00.850Z,14.54
2018-05-10T23:11:28.604Z,14.62
2018-05-10T23:13:56.422Z,14.56
2018-05-10T23:16:24.245Z,14.64
2018-05-10T23:18:51.950Z,14.71
2018-05-10T23:21:19.718Z,14.75
2018-05-10T23:23:47.717Z,14.76
2018-05-10T23:26:15.450Z,14.80
2018-05-10T23:28:43.316Z,14.82
2018-05-10T23:31:11.038Z,14.82
2018-05-10T23:33:38.743Z,14.83
2018-05-10T23:36:06.608Z,14.75
2018-05-10T23:38:34.374Z,14.83
2018-05-10T23:41:02.141Z,14.86
2018-05-10T23:43:29.901Z,14.24
2018-05-10T23:45:57.668Z,13.92
2018-05-10T23:48:25.526Z,13.82
2018-05-10T23:50:53.247Z,13.96
2018-05-10T23:53:20.955Z,14.01
2018-05-10T23:55:48.727Z,14.00
2018-05-10T23:58:16.596Z,13.91
